Time;durP1;ratioP1;P1;durP2;ratioP2;P2;SDS_P1;SDS_P2;PMS_P1;PMS_P2;Temp;Humidity;BMP_temperature;BMP_pressure;BME280_temperature;BME280_humidity;BME280_pressure;Samples;Min_cycle;Max_cycle;Signal;HPM_P1;HPM_P2
2023/06/15 00:01:40;;;;;;;15.98;14.57;;;25.40;95.90;;;;;;5012399;28;20034;-74
2023/06/15 00:04:07;;;;;;;18.00;16.35;;;25.40;96.00;;;;;;4995542;28;20057;-74
2023/06/15 00:06:33;;;;;;;18.55;16.85;;;25.40;96.40;;;;;;5012771;28;20466;-74
2023/06/15 00:08:59;;;;;;;17.67;16.17;;;25.30;96.40;;;;;;5013092;28;20037;-73
2023/06/15 00:11:25;;;;;;;18.45;16.95;;;25.40;96.60;;;;;;5044420;28;20037;-74
2023/06/15 00:13:51;;;;;;;18.88;17.17;;;25.40;96.60;;;;;;5044321;28;20033;-74
2023/06/15 00:16:18;;;;;;;19.80;18.23;;;25.40;96.80;;;;;;5012237;28;20038;-74
2023/06/15 00:18:54;;;;;;;20.42;18.77;;;25.30;96.90;;;;;;5011526;28;20045;-74
2023/06/15 00:21:27;;;;;;;22.10;20.33;;;25.30;97.10;;;;;;5013290;28;20045;-74
2023/06/15 00:23:53;;;;;;;23.42;21.52;;;25.40;97.30;;;;;;5008584;28;20376;-74
2023/06/15 00:26:19;;;;;;;24.10;22.50;;;25.30;97.50;;;;;;5001073;28;20423;-74
2023/06/15 00:28:45;;;;;;;26.40;24.25;;;25.30;97.80;;;;;;5027721;28;20034;-74
2023/06/15 00:31:11;;;;;;;33.22;30.92;;;25.20;98.10;;;;;;5027153;28;20057;-74
2023/06/15 00:33:37;;;;;;;33.55;30.95;;;25.10;98.30;;;;;;5012434;28;20034;-74
2023/06/15 00:36:07;;;;;;;25.38;23.10;;;25.10;98.40;;;;;;5012060;28;20026;-74
2023/06/15 00:38:33;;;;;;;25.67;23.88;;;25.00;98.60;;;;;;5012576;28;20034;-74
2023/06/15 00:40:59;;;;;;;32.40;30.05;;;25.00;98.60;;;;;;5012304;28;20414;-73
2023/06/15 00:43:25;;;;;;;38.35;35.85;;;25.00;98.70;;;;;;5012154;28;20040;-74
2023/06/15 00:45:51;;;;;;;32.50;30.33;;;24.90;98.80;;;;;;5011772;28;20415;-74
2023/06/15 00:48:17;;;;;;;29.27;27.13;;;24.90;99.00;;;;;;5027582;28;20050;-74
2023/06/15 00:50:44;;;;;;;32.58;30.20;;;24.90;99.30;;;;;;5012200;28;20037;-77
2023/06/15 00:53:10;;;;;;;35.15;32.70;;;24.90;99.30;;;;;;5027581;28;20395;-74
2023/06/15 00:55:36;;;;;;;34.70;32.42;;;24.90;99.70;;;;;;5012156;28;20424;-74
2023/06/15 00:58:02;;;;;;;26.90;24.90;;;24.80;99.90;;;;;;5027247;28;20052;-74
2023/06/15 01:00:37;;;;;;;23.98;22.05;;;24.70;99.90;;;;;;5026881;28;20403;-74
2023/06/15 01:03:04;;;;;;;19.35;17.75;;;24.60;99.90;;;;;;5010706;28;20060;-74
2023/06/15 01:05:34;;;;;;;17.63;16.00;;;24.60;99.90;;;;;;5014017;28;20378;-74
2023/06/15 01:08:04;;;;;;;15.07;13.73;;;24.50;99.90;;;;;;5046977;28;20026;-74
2023/06/15 01:10:31;;;;;;;12.97;11.77;;;24.50;99.90;;;;;;5030814;28;20401;-74
2023/06/15 01:12:58;;;;;;;12.82;11.52;;;24.50;99.90;;;;;;5015978;28;20034;-74
2023/06/15 01:15:24;;;;;;;12.95;11.75;;;24.40;99.90;;;;;;5030531;28;20034;-74
2023/06/15 01:17:55;;;;;;;12.98;10.73;;;24.30;99.90;;;;;;5031412;28;20053;-74
2023/06/15 01:20:26;;;;;;;13.88;11.07;;;24.30;99.90;;;;;;5030703;28;20018;-73
2023/06/15 01:23:07;;;;;;;13.23;11.45;;;24.30;99.90;;;;;;5031213;28;20368;-74
2023/06/15 01:25:41;;;;;;;11.52;10.32;;;24.30;99.90;;;;;;5015849;28;20033;-74
2023/06/15 01:28:07;;;;;;;12.63;10.15;;;24.20;99.90;;;;;;5030833;28;20163;-74
2023/06/15 01:30:45;;;;;;;12.45;10.20;;;24.20;99.90;;;;;;5030321;28;20041;-74
2023/06/15 01:33:11;;;;;;;13.85;10.55;;;24.30;99.90;;;;;;5029662;28;20038;-74
2023/06/15 01:35:38;;;;;;;15.18;11.48;;;24.20;99.90;;;;;;5014404;28;20479;-74
2023/06/15 01:38:04;;;;;;;13.80;11.82;;;24.20;99.90;;;;;;5030897;28;20049;-74
2023/06/15 01:40:31;;;;;;;12.57;11.27;;;24.10;99.90;;;;;;5030779;28;20040;-74
2023/06/15 01:42:57;;;;;;;12.43;11.07;;;24.00;99.90;;;;;;5015340;28;20030;-74
2023/06/15 01:45:23;;;;;;;13.43;10.30;;;23.90;99.90;;;;;;5030200;28;20063;-74
2023/06/15 01:47:49;;;;;;;12.40;10.70;;;23.90;99.90;;;;;;5030618;28;20066;-74
2023/06/15 01:50:16;;;;;;;12.27;10.13;;;23.90;99.90;;;;;;5014046;28;20468;-74
2023/06/15 01:52:42;;;;;;;11.80;10.63;;;24.00;99.90;;;;;;5015431;28;20499;-74
2023/06/15 01:55:08;;;;;;;14.43;11.05;;;23.90;99.90;;;;;;5013860;28;20046;-75
2023/06/15 01:57:35;;;;;;;14.60;10.95;;;23.90;99.90;;;;;;4994365;28;20042;-74
2023/06/15 02:00:03;;;;;;;15.00;11.20;;;23.80;99.90;;;;;;4995234;28;20049;-74
2023/06/15 02:02:30;;;;;;;12.27;11.07;;;23.80;99.90;;;;;;5006799;28;20034;-74
2023/06/15 02:04:56;;;;;;;14.32;11.48;;;23.70;99.90;;;;;;5002889;28;20021;-74
2023/06/15 02:07:22;;;;;;;12.77;11.32;;;23.70;99.90;;;;;;5043926;28;20390;-74
2023/06/15 02:09:48;;;;;;;12.27;10.95;;;23.60;99.90;;;;;;5013459;28;20038;-74
2023/06/15 02:12:15;;;;;;;12.55;11.30;;;23.60;99.90;;;;;;5013490;28;20029;-74
2023/06/15 02:14:41;;;;;;;15.43;11.48;;;23.60;99.90;;;;;;5028908;28;20030;-74
2023/06/15 02:17:07;;;;;;;13.13;11.80;;;23.60;99.90;;;;;;5012692;28;20053;-74
2023/06/15 02:19:33;;;;;;;17.85;12.10;;;23.50;99.90;;;;;;5013834;28;20033;-74
2023/06/15 02:22:00;;;;;;;12.40;11.20;;;23.50;99.90;;;;;;5013277;28;20045;-74
2023/06/15 02:24:26;;;;;;;14.00;11.18;;;23.40;99.90;;;;;;5028578;28;20037;-74
2023/06/15 02:26:52;;;;;;;13.43;11.98;;;23.30;99.90;;;;;;5028743;28;20036;-74
2023/06/15 02:29:18;;;;;;;13.48;11.82;;;23.30;99.90;;;;;;5013786;28;20463;-74
2023/06/15 02:31:44;;;;;;;12.38;11.07;;;23.20;99.90;;;;;;5012817;28;20050;-73
2023/06/15 02:34:10;;;;;;;14.63;11.45;;;23.20;99.90;;;;;;5012515;28;20046;-74
2023/06/15 02:36:37;;;;;;;15.40;11.85;;;23.20;99.90;;;;;;5013513;28;20030;-74
2023/06/15 02:39:03;;;;;;;13.05;11.77;;;23.20;99.90;;;;;;5014259;28;20033;-74
2023/06/15 02:41:29;;;;;;;14.00;12.15;;;23.10;99.90;;;;;;4996701;28;20037;-74
2023/06/15 02:43:56;;;;;;;12.23;11.13;;;23.10;99.90;;;;;;5014361;28;20026;-74
2023/06/15 02:46:22;;;;;;;16.17;11.95;;;23.10;99.90;;;;;;5013791;28;20045;-73
2023/06/15 02:48:51;;;;;;;15.32;12.00;;;23.10;99.90;;;;;;5014244;28;20057;-74
2023/06/15 02:51:19;;;;;;;16.58;12.30;;;23.00;99.90;;;;;;5014267;28;20052;-74
2023/06/15 02:53:49;;;;;;;13.90;11.02;;;23.00;99.90;;;;;;5028950;28;20056;-74
2023/06/15 02:56:18;;;;;;;15.73;12.00;;;23.00;99.90;;;;;;5028986;28;20390;-74
2023/06/15 02:58:47;;;;;;;14.10;12.45;;;22.90;99.90;;;;;;5028906;28;20045;-74
2023/06/15 03:01:15;;;;;;;17.90;13.07;;;22.80;99.90;;;;;;5028560;28;20030;-74
2023/06/15 03:03:42;;;;;;;14.93;11.75;;;22.70;99.90;;;;;;5014242;28;20033;-74
2023/06/15 03:06:09;;;;;;;14.88;12.32;;;22.70;99.90;;;;;;5028839;28;20066;-74
2023/06/15 03:08:36;;;;;;;15.10;12.30;;;22.70;99.90;;;;;;5013787;28;20029;-74
2023/06/15 03:11:03;;;;;;;14.68;11.95;;;22.70;99.90;;;;;;5028848;28;20526;-74
2023/06/15 03:13:29;;;;;;;19.23;12.63;;;22.70;99.90;;;;;;5012886;28;20042;-74
2023/06/15 03:15:56;;;;;;;16.40;11.70;;;22.60;99.90;;;;;;5011959;28;20030;-74
2023/06/15 03:18:22;;;;;;;14.90;11.65;;;22.50;99.90;;;;;;5013951;28;20034;-74
2023/06/15 03:20:52;;;;;;;14.75;12.95;;;22.60;99.90;;;;;;5028826;28;20034;-74
2023/06/15 03:23:19;;;;;;;17.90;11.52;;;22.60;99.90;;;;;;5013546;28;20018;-74
2023/06/15 03:25:45;;;;;;;13.55;11.50;;;22.60;99.90;;;;;;5012254;28;20057;-74
2023/06/15 03:28:12;;;;;;;14.25;12.00;;;22.60;99.90;;;;;;5028106;28;20685;-74
2023/06/15 03:30:41;;;;;;;14.05;11.95;;;22.60;99.90;;;;;;5012853;28;20402;-74
2023/06/15 03:33:07;;;;;;;13.77;11.88;;;22.50;99.90;;;;;;5012201;28;20045;-74
2023/06/15 03:35:34;;;;;;;15.45;13.15;;;22.40;99.90;;;;;;5013123;28;20029;-74
2023/06/15 03:38:00;;;;;;;15.52;12.32;;;22.30;99.90;;;;;;5028525;28;20034;-73
2023/06/15 03:40:29;;;;;;;15.13;11.95;;;22.30;99.90;;;;;;5013331;28;20037;-74
2023/06/15 03:42:55;;;;;;;15.98;12.60;;;22.30;99.90;;;;;;5013498;28;20026;-74
2023/06/15 03:45:21;;;;;;;15.45;13.25;;;22.40;99.90;;;;;;5028268;28;20030;-74
2023/06/15 03:47:47;;;;;;;13.57;12.20;;;22.30;99.90;;;;;;5016152;28;20042;-74
2023/06/15 03:50:13;;;;;;;15.02;13.52;;;22.30;99.90;;;;;;5013643;28;20030;-74
2023/06/15 03:52:39;;;;;;;20.80;14.25;;;22.30;99.90;;;;;;5012272;28;20045;-74
2023/06/15 03:55:06;;;;;;;16.20;13.52;;;22.30;99.90;;;;;;5013239;28;20038;-74
2023/06/15 03:57:32;;;;;;;15.02;13.55;;;22.20;99.90;;;;;;5013121;28;20033;-74
2023/06/15 03:59:58;;;;;;;14.63;13.15;;;22.20;99.90;;;;;;5013085;28;20033;-74
2023/06/15 04:02:25;;;;;;;17.45;13.57;;;22.20;99.90;;;;;;5012651;28;20471;-74
2023/06/15 04:04:52;;;;;;;13.65;12.20;;;22.10;99.90;;;;;;5013224;28;20041;-74
2023/06/15 04:07:19;;;;;;;17.35;13.95;;;22.10;99.90;;;;;;5027322;28;20033;-74
2023/06/15 04:09:45;;;;;;;14.38;12.88;;;22.00;99.90;;;;;;5013045;28;20482;-74
2023/06/15 04:12:11;;;;;;;15.10;12.57;;;22.00;99.90;;;;;;5012663;28;20033;-74
2023/06/15 04:14:37;;;;;;;16.15;12.18;;;22.00;99.90;;;;;;5012780;28;20042;-74
2023/06/15 04:17:04;;;;;;;14.07;11.63;;;22.00;99.90;;;;;;5012015;28;20041;-74
2023/06/15 04:19:30;;;;;;;15.63;12.07;;;22.00;99.90;;;;;;5044666;28;20387;-74
2023/06/15 04:21:56;;;;;;;15.10;12.45;;;22.00;99.90;;;;;;5043791;28;20026;-74
2023/06/15 04:24:22;;;;;;;14.60;12.40;;;22.00;99.90;;;;;;5012737;28;20383;-74
2023/06/15 04:26:48;;;;;;;13.70;12.18;;;22.00;99.90;;;;;;5012637;28;20025;-74
2023/06/15 04:29:18;;;;;;;14.20;11.77;;;21.90;99.90;;;;;;5011315;28;20038;-74
2023/06/15 04:31:44;;;;;;;16.73;12.68;;;21.90;99.90;;;;;;5012090;28;20057;-73
2023/06/15 04:34:11;;;;;;;14.88;11.70;;;21.90;99.90;;;;;;5012287;28;20041;-74
2023/06/15 04:36:40;;;;;;;17.50;11.80;;;21.90;99.90;;;;;;5011983;28;20403;-74
2023/06/15 04:39:06;;;;;;;14.32;12.45;;;21.90;99.90;;;;;;5043437;28;20038;-74
2023/06/15 04:41:32;;;;;;;14.75;12.45;;;21.90;99.90;;;;;;5012325;28;20038;-74
2023/06/15 04:43:58;;;;;;;15.35;13.55;;;21.90;99.90;;;;;;5012415;28;20034;-74
2023/06/15 04:46:24;;;;;;;19.27;12.60;;;21.90;99.90;;;;;;5011709;28;20038;-74
2023/06/15 04:48:51;;;;;;;15.65;13.70;;;21.90;99.90;;;;;;5027510;28;20054;-74
2023/06/15 04:51:18;;;;;;;15.27;12.38;;;21.90;99.90;;;;;;5011726;28;20124;-74
2023/06/15 04:53:45;;;;;;;18.27;14.10;;;21.90;99.90;;;;;;5012172;28;20482;-74
2023/06/15 04:56:11;;;;;;;16.52;14.00;;;22.00;99.90;;;;;;5011986;28;20033;-74
2023/06/15 04:58:37;;;;;;;18.45;12.55;;;22.00;99.90;;;;;;5012309;28;20033;-74
2023/06/15 05:01:05;;;;;;;18.23;12.70;;;22.10;99.90;;;;;;5026757;28;20030;-74
2023/06/15 05:03:32;;;;;;;13.95;11.77;;;22.10;99.90;;;;;;5012365;28;20026;-74
2023/06/15 05:05:59;;;;;;;15.57;11.88;;;22.20;99.90;;;;;;5012031;28;20042;-74
2023/06/15 05:08:25;;;;;;;15.40;11.80;;;22.30;99.90;;;;;;5012285;28;20498;-74
2023/06/15 05:10:51;;;;;;;19.52;12.25;;;22.40;99.90;;;;;;5010541;28;20049;-74
2023/06/15 05:13:17;;;;;;;17.08;12.07;;;22.60;99.90;;;;;;5012069;28;20049;-74
2023/06/15 05:15:43;;;;;;;17.20;11.50;;;22.70;99.90;;;;;;5011386;28;20030;-74
2023/06/15 05:18:09;;;;;;;13.63;11.35;;;22.80;99.90;;;;;;5012191;28;20152;-74
2023/06/15 05:20:35;;;;;;;15.73;11.77;;;23.00;99.90;;;;;;5011475;28;20033;-74
2023/06/15 05:23:02;;;;;;;13.32;11.90;;;23.10;99.90;;;;;;5012058;28;20399;-74
2023/06/15 05:25:28;;;;;;;16.38;13.82;;;23.20;99.90;;;;;;5026908;28;20030;-77
2023/06/15 05:27:55;;;;;;;17.13;13.40;;;23.20;99.90;;;;;;5027306;28;20380;-77
2023/06/15 05:30:26;;;;;;;15.52;12.93;;;23.30;99.90;;;;;;5011405;28;20034;-76
2023/06/15 05:32:53;;;;;;;17.05;13.57;;;23.30;99.90;;;;;;5011821;28;20402;-77
2023/06/15 05:35:19;;;;;;;17.75;12.82;;;23.40;99.90;;;;;;5026741;28;20502;-74
2023/06/15 05:37:45;;;;;;;17.05;13.05;;;23.60;99.90;;;;;;5027239;28;20030;-77
2023/06/15 05:40:11;;;;;;;15.93;12.90;;;23.70;99.90;;;;;;5011684;28;20036;-76
2023/06/15 05:42:38;;;;;;;15.10;13.00;;;23.80;99.90;;;;;;5010617;28;20030;-74
2023/06/15 05:45:04;;;;;;;14.52;12.80;;;23.80;99.90;;;;;;5026635;28;20029;-74
2023/06/15 05:47:34;;;;;;;14.40;12.60;;;23.90;99.90;;;;;;5011110;28;20029;-74
2023/06/15 05:50:00;;;;;;;15.10;12.80;;;24.00;99.90;;;;;;5011865;28;20386;-74
2023/06/15 05:52:26;;;;;;;16.92;13.65;;;24.10;99.90;;;;;;5013197;28;20033;-74
2023/06/15 05:54:52;;;;;;;16.55;14.88;;;24.20;99.90;;;;;;5014093;28;20056;-74
2023/06/15 05:57:18;;;;;;;18.67;14.52;;;24.30;99.90;;;;;;5030478;28;20463;-74
2023/06/15 05:59:47;;;;;;;17.13;15.20;;;24.40;99.90;;;;;;5015325;28;20034;-74
2023/06/15 06:02:13;;;;;;;16.80;14.65;;;24.50;99.90;;;;;;5029156;28;20034;-74
2023/06/15 06:04:40;;;;;;;17.50;14.63;;;24.60;99.90;;;;;;5030593;28;20427;-74
2023/06/15 06:07:06;;;;;;;17.35;15.65;;;24.70;99.90;;;;;;5014874;28;20021;-74
2023/06/15 06:09:33;;;;;;;20.23;16.05;;;24.80;99.90;;;;;;5030333;28;20041;-74
2023/06/15 06:12:00;;;;;;;18.08;16.35;;;24.80;99.90;;;;;;5029935;28;20030;-73
2023/06/15 06:14:27;;;;;;;19.48;17.45;;;24.70;99.90;;;;;;5014896;28;20073;-74
2023/06/15 06:16:54;;;;;;;19.23;17.33;;;24.70;99.90;;;;;;5014042;28;20371;-74
2023/06/15 06:19:24;;;;;;;16.75;15.05;;;24.80;99.90;;;;;;5015102;28;20049;-74
2023/06/15 06:21:50;;;;;;;15.85;14.45;;;24.80;99.90;;;;;;5014646;28;20022;-73
2023/06/15 06:24:16;;;;;;;16.52;14.63;;;24.80;99.90;;;;;;5030123;28;20045;-74
2023/06/15 06:26:42;;;;;;;17.45;14.10;;;24.90;99.90;;;;;;5014623;28;20036;-74
2023/06/15 06:29:09;;;;;;;16.90;14.20;;;24.90;99.90;;;;;;5015259;28;20414;-73
2023/06/15 06:31:35;;;;;;;18.88;14.13;;;24.90;99.90;;;;;;5028837;28;20030;-74
2023/06/15 06:34:02;;;;;;;14.65;13.15;;;25.00;99.90;;;;;;5014650;28;20042;-73
2023/06/15 06:36:28;;;;;;;16.73;11.98;;;25.10;99.90;;;;;;5014330;28;20030;-74
2023/06/15 06:38:54;;;;;;;15.38;11.77;;;25.30;99.90;;;;;;5014723;28;20493;-73
2023/06/15 06:41:21;;;;;;;17.25;11.95;;;25.30;99.90;;;;;;5029649;28;20476;-74
2023/06/15 06:43:47;;;;;;;17.35;11.68;;;25.40;99.90;;;;;;5029919;28;20026;-73
2023/06/15 06:46:14;;;;;;;12.52;11.25;;;25.40;99.90;;;;;;5013523;28;20037;-74
2023/06/15 06:48:40;;;;;;;14.90;11.88;;;25.60;99.90;;;;;;5014279;28;20049;-74
2023/06/15 06:51:06;;;;;;;16.13;11.30;;;25.70;99.90;;;;;;5012967;28;20029;-74
2023/06/15 06:53:32;;;;;;;14.40;11.18;;;25.80;99.90;;;;;;5029754;28;20029;-74
2023/06/15 06:55:59;;;;;;;13.93;10.95;;;25.90;99.90;;;;;;5014102;28;20034;-74
2023/06/15 06:58:25;;;;;;;16.30;11.45;;;25.90;99.90;;;;;;5014255;28;20030;-74
2023/06/15 07:00:51;;;;;;;12.75;10.75;;;26.00;99.90;;;;;;5013152;28;20033;-74
2023/06/15 07:03:17;;;;;;;15.48;11.48;;;26.20;99.90;;;;;;5029119;28;20041;-74
2023/06/15 07:05:43;;;;;;;12.52;9.82;;;26.20;99.90;;;;;;5013951;28;20030;-74
2023/06/15 07:08:10;;;;;;;11.35;10.15;;;26.30;99.90;;;;;;5013005;28;20040;-74
2023/06/15 07:10:36;;;;;;;15.73;11.00;;;26.40;99.90;;;;;;5013821;28;20026;-74
2023/06/15 07:13:02;;;;;;;16.40;10.73;;;26.60;99.90;;;;;;5013799;28;20033;-73
2023/06/15 07:15:31;;;;;;;15.52;10.13;;;26.50;99.90;;;;;;5011872;28;20046;-74
2023/06/15 07:17:58;;;;;;;13.90;10.88;;;26.60;99.90;;;;;;5013895;28;20025;-74
2023/06/15 07:20:24;;;;;;;14.80;10.90;;;26.70;99.90;;;;;;5045314;28;20044;-74
2023/06/15 07:22:50;;;;;;;11.15;10.07;;;26.80;99.90;;;;;;5013833;28;20521;-74
2023/06/15 07:25:16;;;;;;;17.20;10.02;;;26.80;99.90;;;;;;5013314;28;20030;-74
2023/06/15 07:27:42;;;;;;;12.68;10.35;;;27.00;99.90;;;;;;5013803;28;20486;-74
2023/06/15 07:30:09;;;;;;;12.80;9.88;;;27.00;99.90;;;;;;5011629;28;20042;-73
2023/06/15 07:32:35;;;;;;;13.07;9.95;;;27.20;99.90;;;;;;5013574;28;20038;-74
2023/06/15 07:35:01;;;;;;;12.68;9.82;;;27.30;99.90;;;;;;5028913;28;20038;-73
2023/06/15 07:37:27;;;;;;;13.10;9.43;;;27.40;99.90;;;;;;5013095;28;20034;-74
2023/06/15 07:39:53;;;;;;;10.68;9.00;;;27.50;99.90;;;;;;5013561;28;20379;-74
2023/06/15 07:42:19;;;;;;;12.68;9.38;;;27.60;99.90;;;;;;5013189;28;20033;-74
2023/06/15 07:44:45;;;;;;;17.08;9.98;;;27.70;99.90;;;;;;5013182;28;20041;-74
2023/06/15 07:47:11;;;;;;;12.07;9.70;;;27.80;99.90;;;;;;5013216;28;20038;-74
2023/06/15 07:49:38;;;;;;;15.93;9.55;;;27.90;99.90;;;;;;5018589;28;20426;-74
2023/06/15 07:52:04;;;;;;;12.07;10.10;;;28.10;99.90;;;;;;5028651;28;20052;-74
2023/06/15 07:54:30;;;;;;;11.13;9.90;;;28.10;99.60;;;;;;5017451;28;20038;-74
2023/06/15 07:56:57;;;;;;;14.57;9.80;;;28.10;99.90;;;;;;5013340;28;20391;-74
2023/06/15 07:59:23;;;;;;;11.88;9.90;;;28.20;99.80;;;;;;5031570;28;20470;-74
2023/06/15 08:01:49;;;;;;;12.13;9.15;;;28.30;99.60;;;;;;5018635;28;20049;-74
2023/06/15 08:04:15;;;;;;;11.27;8.90;;;28.40;99.60;;;;;;4995665;28;20057;-74
2023/06/15 08:06:41;;;;;;;14.18;8.82;;;28.50;99.00;;;;;;5023032;28;20033;-74
2023/06/15 08:09:07;;;;;;;10.02;8.70;;;28.60;98.60;;;;;;5032810;28;20036;-74
2023/06/15 08:11:34;;;;;;;9.10;8.10;;;28.80;98.70;;;;;;5020098;28;20030;-74
2023/06/15 08:14:00;;;;;;;11.30;9.00;;;28.90;98.40;;;;;;5011064;28;20624;-74
2023/06/15 08:16:27;;;;;;;13.32;8.77;;;28.90;98.40;;;;;;5010778;28;20034;-74
2023/06/15 08:18:53;;;;;;;11.20;9.10;;;29.00;97.40;;;;;;5011804;28;20386;-74
2023/06/15 08:21:19;;;;;;;14.30;9.10;;;29.10;97.80;;;;;;5012654;28;20034;-74
2023/06/15 08:23:45;;;;;;;10.60;9.40;;;29.20;97.50;;;;;;5022891;28;20032;-74
2023/06/15 08:26:12;;;;;;;10.32;8.93;;;29.30;97.20;;;;;;5022784;28;20045;-75
2023/06/15 08:28:38;;;;;;;12.70;9.07;;;29.40;96.20;;;;;;5012474;28;20032;-74
2023/06/15 08:31:04;;;;;;;13.93;9.30;;;29.40;96.40;;;;;;5010863;28;20038;-74
2023/06/15 08:33:31;;;;;;;17.30;10.10;;;29.50;96.00;;;;;;5012841;28;20026;-74
2023/06/15 08:35:57;;;;;;;12.73;9.07;;;29.70;95.60;;;;;;5012397;28;20038;-74
2023/06/15 08:38:23;;;;;;;9.93;8.50;;;29.80;95.00;;;;;;5012675;28;20026;-74
2023/06/15 08:40:49;;;;;;;10.05;9.05;;;29.90;95.40;;;;;;5044113;28;20038;-74
2023/06/15 08:43:16;;;;;;;11.18;9.05;;;29.90;95.00;;;;;;5043917;28;20045;-74
2023/06/15 08:45:43;;;;;;;10.88;9.77;;;29.90;94.50;;;;;;5023609;28;20061;-74
2023/06/15 08:48:13;;;;;;;11.32;9.05;;;29.80;93.70;;;;;;5025206;28;20086;-74
2023/06/15 08:50:39;;;;;;;14.32;9.00;;;29.50;94.50;;;;;;5011097;28;20060;-74
2023/06/15 08:53:06;;;;;;;17.67;8.75;;;29.70;94.40;;;;;;5011197;28;20034;-74
2023/06/15 08:55:33;;;;;;;9.52;8.00;;;29.80;94.40;;;;;;5010879;28;20038;-75
2023/06/15 08:58:02;;;;;;;10.75;9.43;;;29.90;94.50;;;;;;5021862;28;20065;-74
2023/06/15 09:00:28;;;;;;;9.75;8.80;;;30.00;94.20;;;;;;5027785;28;20036;-74
2023/06/15 09:02:58;;;;;;;11.70;9.25;;;30.20;93.50;;;;;;5011171;28;20026;-74
2023/06/15 09:05:25;;;;;;;10.38;9.40;;;30.20;93.60;;;;;;5010908;28;20033;-74
2023/06/15 09:07:51;;;;;;;12.15;9.30;;;30.40;93.90;;;;;;5011127;28;20034;-74
2023/06/15 09:10:21;;;;;;;11.55;8.43;;;30.50;93.60;;;;;;5011714;28;20052;-74
2023/06/15 09:12:57;;;;;;;9.38;8.57;;;30.50;92.70;;;;;;5011076;28;20037;-74
2023/06/15 09:15:27;;;;;;;11.98;9.32;;;30.50;93.30;;;;;;5010264;28;20042;-74
2023/06/15 09:17:54;;;;;;;11.05;9.85;;;30.30;92.10;;;;;;5012066;28;20041;-74
2023/06/15 09:20:21;;;;;;;15.10;9.40;;;30.30;92.90;;;;;;5010903;28;20037;-74
2023/06/15 09:22:48;;;;;;;9.85;8.75;;;30.50;93.30;;;;;;5011091;28;20485;-74
2023/06/15 09:25:19;;;;;;;9.57;8.75;;;30.70;92.50;;;;;;5011551;28;20034;-75
2023/06/15 09:28:05;;;;;;;9.90;8.52;;;30.90;92.80;;;;;;4998571;28;20045;-74
2023/06/15 09:30:36;;;;;;;10.25;9.07;;;31.00;92.80;;;;;;5014274;28;20390;-74
2023/06/15 09:33:10;;;;;;;;;;;31.10;92.40;;;;;;5015147;28;20029;-74
2023/06/15 09:35:36;;;;;;;9.80;8.82;;;31.00;91.10;;;;;;5015574;28;19918;-75
2023/06/15 09:38:02;;;;;;;11.75;10.55;;;31.00;90.90;;;;;;5047585;28;20034;-74
2023/06/15 09:40:30;;;;;;;11.65;9.52;;;31.10;91.60;;;;;;5015289;28;20034;-74
2023/06/15 09:42:58;;;;;;;10.63;9.18;;;31.10;90.90;;;;;;5015763;28;20033;-74
2023/06/15 09:45:24;;;;;;;11.80;8.60;;;31.20;91.20;;;;;;5015269;28;20356;-74
2023/06/15 09:47:55;;;;;;;14.05;8.63;;;31.20;91.20;;;;;;5014347;28;20038;-75
2023/06/15 09:50:26;;;;;;;11.07;9.98;;;31.30;90.90;;;;;;5015529;28;20042;-74
2023/06/15 09:52:52;;;;;;;10.60;8.75;;;31.40;90.60;;;;;;5014513;28;20022;-74
2023/06/15 09:55:18;;;;;;;13.52;9.85;;;31.60;90.50;;;;;;5013690;28;20038;-74
2023/06/15 09:57:44;;;;;;;13.27;9.70;;;31.70;90.00;;;;;;5007143;28;20036;-74
2023/06/15 10:00:12;;;;;;;10.52;9.55;;;31.60;86.00;;;;;;5033259;28;20362;-77
2023/06/15 10:02:38;;;;;;;10.95;9.85;;;31.40;86.50;;;;;;5015242;28;20022;-74
2023/06/15 10:05:13;;;;;;;11.30;9.80;;;31.20;85.40;;;;;;5014090;28;20025;-74
2023/06/15 10:07:40;;;;;;;10.82;8.70;;;31.20;87.80;;;;;;5010327;28;20476;-74
2023/06/15 10:10:07;;;;;;;11.13;9.82;;;31.20;85.40;;;;;;4994195;28;20034;-75
2023/06/15 10:12:35;;;;;;;10.13;9.23;;;31.00;84.30;;;;;;5013454;28;20021;-74
2023/06/15 10:15:03;;;;;;;12.15;9.48;;;30.70;84.80;;;;;;5013993;28;20052;-73
2023/06/15 10:17:35;;;;;;;11.50;10.07;;;30.40;85.00;;;;;;5014496;28;20026;-74
2023/06/15 10:20:09;;;;;;;10.57;9.48;;;30.20;85.00;;;;;;5014980;28;20490;-74
2023/06/15 10:23:07;;;;;;;11.88;10.52;;;30.30;85.90;;;;;;5015111;28;20030;-74
2023/06/15 10:25:33;;;;;;;10.45;9.35;;;30.50;84.20;;;;;;5014779;28;20061;-74
2023/06/15 10:28:09;;;;;;;10.93;9.82;;;30.60;84.10;;;;;;5013505;28;20030;-74
2023/06/15 10:30:41;;;;;;;11.27;10.18;;;30.60;83.20;;;;;;5013074;28;20030;-74
2023/06/15 10:33:13;;;;;;;11.82;10.32;;;30.90;85.10;;;;;;5013694;28;20056;-74
2023/06/15 10:35:47;;;;;;;12.02;10.75;;;31.10;81.30;;;;;;5013237;28;20545;-74
2023/06/15 10:38:23;;;;;;;11.38;10.30;;;31.00;80.30;;;;;;5044874;28;20025;-75
2023/06/15 10:40:49;;;;;;;10.18;9.13;;;30.90;80.80;;;;;;5046198;28;20395;-74
2023/06/15 10:43:17;;;;;;;11.38;10.27;;;30.90;82.10;;;;;;5029898;28;20026;-74
2023/06/15 10:45:43;;;;;;;11.73;10.23;;;31.10;81.10;;;;;;5039912;28;20045;-74
2023/06/15 10:48:19;;;;;;;12.27;10.98;;;31.10;80.80;;;;;;5002945;28;20411;-74
2023/06/15 10:50:48;;;;;;;10.88;9.85;;;31.10;79.50;;;;;;4978582;28;20030;-74
2023/06/15 10:53:24;;;;;;;12.02;10.82;;;31.20;80.80;;;;;;4994823;28;20506;-74
2023/06/15 10:55:55;;;;;;;11.30;9.40;;;31.20;75.80;;;;;;5009631;28;20403;-74
2023/06/15 10:58:21;;;;;;;11.57;10.38;;;31.30;81.80;;;;;;5023788;28;20018;-73
2023/06/15 11:01:13;;;;;;;10.90;9.82;;;31.40;79.10;;;;;;5023702;28;20049;-74
2023/06/15 11:03:40;;;;;;;10.38;9.57;;;31.50;81.00;;;;;;4994797;28;20471;-74
2023/06/15 11:06:28;;;;;;;12.80;10.07;;;31.70;81.90;;;;;;5009311;28;20045;-74
2023/06/15 11:09:01;;;;;;;11.80;10.02;;;32.00;81.90;;;;;;4994712;28;20026;-74
2023/06/15 11:11:34;;;;;;;11.05;10.10;;;32.20;75.70;;;;;;5009174;28;20039;-74
2023/06/15 11:14:04;;;;;;;10.88;9.77;;;32.10;73.40;;;;;;5009024;28;20490;-74
2023/06/15 11:16:34;;;;;;;11.60;10.50;;;32.00;74.60;;;;;;4994054;28;20050;-74
2023/06/15 11:19:12;;;;;;;10.18;9.27;;;31.90;74.90;;;;;;5008990;28;20030;-74
2023/06/15 11:21:40;;;;;;;11.70;10.57;;;32.00;78.10;;;;;;4993864;28;20502;-74
2023/06/15 11:24:06;;;;;;;11.68;10.57;;;32.20;77.90;;;;;;5009249;28;20030;-74
2023/06/15 11:26:34;;;;;;;10.80;9.82;;;32.50;75.50;;;;;;5009192;28;20467;-75
2023/06/15 11:29:03;;;;;;;11.07;9.90;;;32.40;76.20;;;;;;4994412;28;20026;-74
2023/06/15 11:31:29;;;;;;;11.20;9.90;;;32.50;79.00;;;;;;5005323;28;20482;-74
2023/06/15 11:33:55;;;;;;;10.30;9.32;;;32.70;79.30;;;;;;5012574;28;20037;-74
2023/06/15 11:36:21;;;;;;;12.68;10.10;;;32.70;79.30;;;;;;4994886;28;20427;-74
2023/06/15 11:38:48;;;;;;;11.38;10.30;;;32.60;75.80;;;;;;4974558;28;20460;-74
2023/06/15 11:41:14;;;;;;;10.68;9.63;;;32.40;72.90;;;;;;4992235;28;20053;-74
2023/06/15 11:43:51;;;;;;;11.18;9.77;;;32.20;76.40;;;;;;5012367;28;20490;-74
2023/06/15 11:46:22;;;;;;;12.00;9.48;;;32.40;77.90;;;;;;5011639;28;20411;-74
2023/06/15 11:48:54;;;;;;;12.73;9.77;;;32.30;77.70;;;;;;4996158;28;20546;-74
2023/06/15 11:51:20;;;;;;;11.18;9.10;;;32.40;78.50;;;;;;5002277;28;20042;-74
2023/06/15 11:53:46;;;;;;;11.50;10.48;;;32.60;78.30;;;;;;5013366;28;20033;-74
2023/06/15 11:56:14;;;;;;;11.95;10.02;;;32.70;76.50;;;;;;5028200;28;20053;-74
2023/06/15 11:58:43;;;;;;;9.73;8.93;;;32.50;77.10;;;;;;5028399;28;20407;-74
2023/06/15 12:01:11;;;;;;;10.85;9.70;;;32.70;77.70;;;;;;5003102;28;20054;-74
2023/06/15 12:03:40;;;;;;;12.77;10.60;;;32.80;74.90;;;;;;4999806;28;20017;-74
2023/06/15 12:06:06;;;;;;;11.73;10.73;;;32.70;73.40;;;;;;4987204;28;20034;-75
2023/06/15 12:08:32;;;;;;;10.35;9.45;;;32.90;71.10;;;;;;5002898;28;20038;-75
2023/06/15 12:10:59;;;;;;;11.27;8.98;;;32.90;74.20;;;;;;4977789;28;20045;-74
2023/06/15 12:13:25;;;;;;;10.77;9.68;;;33.10;75.60;;;;;;4997463;28;20396;-75
2023/06/15 12:15:52;;;;;;;11.43;10.07;;;33.20;74.80;;;;;;5008688;28;20046;-74
2023/06/15 12:18:19;;;;;;;10.90;9.82;;;33.40;72.40;;;;;;5005623;28;20489;-75
2023/06/15 12:20:45;;;;;;;14.52;13.15;;;33.50;74.80;;;;;;5023059;28;20025;-74
2023/06/15 12:23:11;;;;;;;11.55;10.48;;;33.60;74.30;;;;;;5041412;28;20025;-74
2023/06/15 12:25:44;;;;;;;11.32;10.30;;;33.90;75.00;;;;;;5044295;28;20033;-75
2023/06/15 12:28:17;;;;;;;11.52;10.63;;;34.00;74.50;;;;;;5035886;28;20022;-76
2023/06/15 12:30:49;;;;;;;11.20;10.02;;;34.00;72.40;;;;;;5014210;28;20036;-74
2023/06/15 12:33:42;;;;;;;11.32;9.73;;;33.70;72.20;;;;;;5026640;28;20411;-74